Historyczne dane pomiarowe

Dodano dane terminowe – wersja testowa.

Dane z okresu 1951-2019

Wersja bazy: 1.34 [2019-03-16, lista zmian], aktualizacja planowana na 2019-04-15

Dane meteo z obszaru Polski uzyskane na podstawie danych udostępnionych przez Instytut Meteorologii i Gospodarki Wodnej – Państwowy Instytut Badawczy.

 

Wybierz Datę:    

       

TemperaturaWilgotnośćZachmurzenieWiatrCiśnienieWidzialnośćZjawiska
 Data    tng td wb rh cc ccl cl cm ch dir g1 g2 mslp ppp      
1999-07-30 00:00:00 3.1--- 2.9 3.098wxwxwx8wx--- 802.0 0.0---wx
1999-07-30 01:00:00 3.1--- 2.1 2.793wxwxwx10wx17-- 801.8----wx
1999-07-30 02:00:00 3.3--- 2.1 2.891wxwxwx10wx16-- 801.4----wx
1999-07-30 03:00:00 3.6--- 3.4 3.598wxwxwx10wx16-- 801.3----wx
1999-07-30 04:00:00 3.6--- 3.6 3.6100wxwxwx8wx--- 801.1----wxw1
1999-07-30 05:00:00 4.1--- 4.1 4.1100wxwx9wx15-- 801.2----wxw1
1999-07-30 06:00:00 4.3--- 4.3 4.3100wxwx9wx15-- 801.1 0.0---wx
1999-07-30 07:00:00 4.8--- 4.8 4.8100wxwx9wx--- 801.3----wxw1
1999-07-30 08:00:00 4.7--- 4.6 4.7100wxwx9wx--- 801.5----wxw1
1999-07-30 09:00:00 5.1--- 4.6 4.997wxwxwx7wx--- 801.7----wx
1999-07-30 10:00:00 5.3--- 4.6 5.095wxwxwx7wx--- 801.8----wx
1999-07-30 11:00:00 5.8--- 5.6 5.798wxwxwx5wx--- 802.0----wx
1999-07-30 12:00:00 5.4--- 5.4 5.4100wxwxwx6wx--- 802.0 0.0---wxw1
1999-07-30 13:00:00 5.4--- 5.4 5.4100wxwxwx5wx--- 802.0----wxw1
1999-07-30 14:00:00 5.9--- 5.5 5.797wxwxwx6wx--- 802.0----wx
1999-07-30 15:00:00 5.1--- 5.1 5.1100wxwx6wx--- 802.0----wxw1
1999-07-30 16:00:00 5.8--- 5.8 5.8100wxwxwx6wx--- 801.9----wxw1
1999-07-30 17:00:00 5.9--- 5.9 5.9100wxwx6wx--- 801.9----wxw1
1999-07-30 18:00:00 5.6--- 5.6 5.6100wxwx8wx--- 802.1 1.1---wxw1
1999-07-30 19:00:00 5.7--- 5.7 5.7100wxwx7wx--- 802.2----wxw1
1999-07-30 20:00:00 5.8--- 5.8 5.8100wxwx8wx--- 802.0----wxw1
1999-07-30 21:00:00 5.7--- 5.7 5.7100wxwx7wx--- 801.9----wxw1
1999-07-30 22:00:00 5.6--- 5.6 5.6100wxwx6wx--- 802.0----wxw1
1999-07-30 23:00:00 4.9--- 4.5 4.797wxwxwx7wx--- 801.7----wx

 

Źródłem pochodzenia danych jest Instytut Meteorologii i Gospodarki Wodnej – Państwowy Instytut Badawczy. Dane Instytutu Meteorologii i Gospodarki Wodnej – Państwowego Instytutu Badawczego zostały przetworzone.

Dane źródłowe można odnaleźć na stronie https://dane.imgw.pl